• Join FlightAware (Why Join?)
  • Login
  • US Flag 
07:48PM EDT


 

Airport Tracker/Info


-or-


 

Live Flight TrackerFlight Track Log ✈ FLG4134 ✈ 12-Jul-2012 ✈ KDTW - KITH

Flight Track Log - Related Links

Times and Time Zones

All times are in EDT time to prevent confusion due to time zone crossing. See the FLG4134 flight status page for this flight to view local times or setup timezone preferences in your user account.

Time Position Orientation Groundspeed Altitude Reporting Facility
EDT Latitude Longitude Course Direction KTS MPH feet Rate Location/Type
11:00AM 42.1972 -83.3608 180° South 170 196 1,200  Level Cleveland Center
11:00AM 42.1658 -83.3611 182° South 189 217 2,600 2,040 Climbing FAA TRACON SMA TRACON (SMA)
11:01AM 42.1219 -83.3628 182° South 214 246 4,200 1,920 Climbing FAA TRACON SMA TRACON (SMA)
11:02AM 42.0856 -83.3642 170° South 243 280 5,200 2,280 Climbing FAA TRACON SMA TRACON (SMA)
11:02AM 42.0364 -83.3522 112° Southeast 266 306 7,200 3,000 Climbing FAA TRACON SMA TRACON (SMA)
11:03AM 42.0158 -83.2828 66° East 289 333 9,400 2,100 Climbing FAA TRACON SMA TRACON (SMA)
11:04AM 42.0350 -83.2250 60° Northeast 315 362 10,000 420 Climbing FAA TRACON SMA TRACON (SMA)
11:04AM 42.0678 -83.1497 60° Northeast 337 388 10,000  Level FAA TRACON SMA TRACON (SMA)
11:05AM 42.1000 -83.0758 59° Northeast 341 392 10,000  Level FAA TRACON SMA TRACON (SMA)
11:06AM 42.1308 -83.0064 60° Northeast 340 391 10,000 1,020 Level FAA TRACON SMA TRACON (SMA)
11:06AM 42.1639 -82.9300 60° Northeast 341 392 11,400 1,920 Climbing FAA TRACON SMA TRACON (SMA)
11:07AM 42.1978 -82.8522 60° Northeast 345 397 12,600 1,740 Climbing FAA TRACON SMA TRACON (SMA)
11:08AM 42.2311 -82.7750 59° Northeast 353 406 13,800 1,020 Climbing FAA TRACON SMA TRACON (SMA)
11:08AM 42.2636 -82.7006 60° Northeast 359 413 14,000 720 Climbing FAA TRACON SMA TRACON (SMA)
11:09AM 42.2986 -82.6192 60° Northeast 362 417 14,800 1,380 Climbing FAA TRACON SMA TRACON (SMA)
11:10AM 42.3325 -82.5394 61° Northeast 364 419 15,900 1,200 Climbing FAA TRACON SMA TRACON (SMA)
11:10AM 42.3639 -82.4619 88° East 367 422 16,400 1,200 Climbing FAA TRACON SMA TRACON (SMA)
11:11AM 42.3658 -82.3667 93° East 367 422 17,500 1,200 Climbing FAA TRACON SMA TRACON (SMA)
11:12AM 42.3619 -82.2739 92° East 370 426 18,000 780 Climbing FAA TRACON SMA TRACON (SMA)
11:12AM 42.3594 -82.1936 94° East 374 430 18,600 900 Climbing FAA TRACON SMA TRACON (SMA)
11:13AM 42.3528 -82.0583 93° East 382 440 19,400 960 Climbing Cleveland Center
11:14AM 42.3461 -81.9092 94° East 387 445 20,400 900 Climbing Cleveland Center
11:15AM 42.3375 -81.7572 93° East 396 456 21,300 900 Climbing Cleveland Center
11:16AM 42.3306 -81.6000 93° East 410 472 22,300 1,440 Climbing Cleveland Center
11:17AM 42.3256 -81.4508 95° East 404 465 24,200 1,740 Climbing Cleveland Center
11:18AM 42.3161 -81.3075 94° East 398 458 25,800 1,260 Climbing Cleveland Center
11:19AM 42.3086 -81.1672 93° East 387 445 26,800 600 Climbing Cleveland Center
11:20AM 42.3031 -81.0322 94° East 387 445 27,000 60 Climbing Cleveland Center
11:21AM 42.2953 -80.8722 90° East 407 468 27,000  Level Cleveland Center
11:22AM 42.2956 -80.7067 84° East 427 491 27,000  Level Cleveland Center
11:23AM 42.3081 -80.5383 85° East 446 513 27,000  Level Cleveland Center
11:24AM 42.3183 -80.3669 85° East 452 520 27,000  Level Cleveland Center
11:25AM 42.3303 -80.1844 86° East 452 520 27,000  Level Cleveland Center
11:26AM 42.3400 -80.0131 86° East 452 520 27,000  Level Cleveland Center
11:27AM 42.3494 -79.8444 86° East 458 527 27,000  Level Cleveland Center
11:28AM 42.3586 -79.6728 86° East 458 527 27,000  Level Cleveland Center
11:29AM 42.3675 -79.5011 85° East 463 533 27,000  Level Cleveland Center
11:30AM 42.3783 -79.3267 86° East 458 527 27,000  Level Cleveland Center
11:31AM 42.3869 -79.1581 86° East 458 527 27,000  Level Cleveland Center
11:32AM 42.3950 -78.9833 86° East 458 527 27,000  Level Cleveland Center
11:33AM 42.4028 -78.8089 86° East 464 534 27,000  Level Cleveland Center
11:34AM 42.4106 -78.6372 86° East 464 534 27,000  Level Cleveland Center
11:35AM 42.4197 -78.4597 86° East 464 534 27,000  Level Cleveland Center
11:36AM 42.4292 -78.2906 87° East 459 528 27,000 -1,200 Level Cleveland Center
11:37AM 42.4361 -78.1186 88° East 464 534 24,600 -2,400 Descending Cleveland Center
11:38AM 42.4408 -77.9581 88° East 442 509 22,200 -2,100 Descending Cleveland Center
11:39AM 42.4444 -77.8425 87° East 420 483 20,400 -1,980 Descending Cleveland Center
11:40AM 42.4508 -77.6792 87° East 398 458 18,300 -2,100 Descending Cleveland Center
11:42AM 42.4611 -77.3633 87° East 372 428 13,900 -2,100 Descending Cleveland Center
11:43AM 42.4661 -77.2475 88° East 371 427 12,100 -1,920 Descending Cleveland Center
11:44AM 42.4689 -77.1292 87° East 346 398 10,700 -1,500 Descending Cleveland Center
11:46AM 42.4767 -76.9064 76° East 289 333 7,700 -1,500 Descending Cleveland Center
11:48AM 42.5086 -76.7361 44° Northeast 249 287 4,900 -1,380 Descending New York Center
11:49AM 42.5553 -76.6756 71° East 235 270 3,900 -840 Descending New York Center
11:50AM 42.5731 -76.6067 119° Southeast 213 245 3,300 -600 Descending New York Center
11:51AM 42.5472 -76.5425 119° Southeast 172 198 2,700 -600 Descending New York Center